createdAt,value
2022-10-07T00:03:27.106Z,98.53
2022-10-07T00:08:30.336Z,98.72
2022-10-07T00:13:33.616Z,99.04
2022-10-07T00:18:37.240Z,99.27
2022-10-07T00:23:44.250Z,99.26
2022-10-07T00:28:47.450Z,99.24
2022-10-07T00:33:50.541Z,99.36
2022-10-07T00:38:58.199Z,99.11
2022-10-07T00:44:21.820Z,99.10
2022-10-07T00:49:24.540Z,99.24
2022-10-07T00:54:27.277Z,99.44
2022-10-07T00:59:30.124Z,99.59
2022-10-07T01:04:33.009Z,99.53
2022-10-07T01:09:36.239Z,99.67
2022-10-07T01:14:54.749Z,99.96
2022-10-07T01:20:09.390Z,100.00
2022-10-07T01:25:49.609Z,100.00
2022-10-07T01:30:56.663Z,100.00
2022-10-07T01:36:05.894Z,100.00
2022-10-07T01:41:15.669Z,100.00
2022-10-07T01:46:22.096Z,100.00
2022-10-07T01:51:28.450Z,100.00
2022-10-07T01:57:02.069Z,100.00
2022-10-07T02:02:41.368Z,100.00
2022-10-07T02:08:22.935Z,100.00
2022-10-07T02:13:29.084Z,100.00
2022-10-07T02:18:34.321Z,100.00
2022-10-07T02:23:40.126Z,100.00
2022-10-07T02:28:43.893Z,100.00
2022-10-07T02:33:47.372Z,100.00
2022-10-07T02:38:50.083Z,100.00
2022-10-07T02:43:56.684Z,100.00
2022-10-07T02:49:02.625Z,100.00
2022-10-07T02:54:05.627Z,100.00
2022-10-07T02:59:11.596Z,100.00
2022-10-07T03:04:14.442Z,100.00
2022-10-07T03:09:17.249Z,100.00
2022-10-07T03:14:20.575Z,100.00
2022-10-07T03:19:23.987Z,100.00
2022-10-07T03:24:26.629Z,100.00
2022-10-07T03:29:32.771Z,100.00
2022-10-07T03:34:35.374Z,100.00
2022-10-07T03:39:38.235Z,100.00
2022-10-07T03:44:40.928Z,100.00
2022-10-07T03:49:46.642Z,100.00
2022-10-07T03:54:49.314Z,100.00
2022-10-07T03:59:53.628Z,100.00
2022-10-07T04:04:56.338Z,100.00
2022-10-07T04:09:59.240Z,100.00
2022-10-07T04:15:02.047Z,100.00
2022-10-07T04:20:05.096Z,100.00
2022-10-07T04:25:27.692Z,100.00
2022-10-07T04:30:34.874Z,100.00
2022-10-07T04:35:39.082Z,100.00
2022-10-07T04:40:47.868Z,100.00
2022-10-07T04:45:55.457Z,100.00
2022-10-07T04:51:05.612Z,100.00
2022-10-07T04:56:09.737Z,100.00
2022-10-07T05:01:12.484Z,100.00
2022-10-07T05:06:15.127Z,100.00
2022-10-07T05:11:17.762Z,100.00
2022-10-07T05:16:21.025Z,100.00
2022-10-07T05:21:23.752Z,100.00
2022-10-07T05:26:26.379Z,100.00
2022-10-07T05:31:29.141Z,100.00
2022-10-07T05:36:31.806Z,100.00
2022-10-07T05:41:44.562Z,100.00
2022-10-07T05:46:47.693Z,100.00
2022-10-07T05:51:51.416Z,100.00
2022-10-07T05:56:53.996Z,100.00
2022-10-07T06:02:00.352Z,100.00
2022-10-07T06:07:04.167Z,100.00
2022-10-07T06:12:25.210Z,100.00
2022-10-07T06:17:27.802Z,100.00
2022-10-07T06:22:30.397Z,100.00
2022-10-07T06:27:34.329Z,100.00
2022-10-07T06:32:38.012Z,100.00
2022-10-07T06:37:40.693Z,100.00
2022-10-07T06:42:43.360Z,100.00
2022-10-07T06:47:46.095Z,100.00
2022-10-07T06:52:49.325Z,100.00
2022-10-07T06:57:52.015Z,100.00
2022-10-07T07:02:54.609Z,100.00
2022-10-07T07:07:57.348Z,100.00
2022-10-07T07:18:07.241Z,100.00
2022-10-07T07:23:12.633Z,100.00
2022-10-07T07:28:16.260Z,100.00
2022-10-07T07:33:18.930Z,100.00
2022-10-07T07:38:24.811Z,100.00
2022-10-07T07:43:28.176Z,99.63
2022-10-07T07:48:31.229Z,97.89
2022-10-07T07:53:34.384Z,95.12
2022-10-07T07:58:37.034Z,93.38
2022-10-07T08:03:43.125Z,90.33
2022-10-07T08:08:45.713Z,89.09
2022-10-07T08:13:48.396Z,87.62
2022-10-07T08:18:52.375Z,86.07
2022-10-07T08:23:57.391Z,85.21
2022-10-07T08:29:01.564Z,84.03
2022-10-07T08:34:05.422Z,83.17
2022-10-07T08:39:08.133Z,80.30
2022-10-07T08:44:16.731Z,78.82
2022-10-07T08:49:36.610Z,77.66
2022-10-07T08:54:39.267Z,77.19
2022-10-07T08:59:46.857Z,75.62
2022-10-07T09:05:20.094Z,74.52
2022-10-07T09:10:34.683Z,73.41
2022-10-07T09:15:46.531Z,73.02
2022-10-07T09:20:54.042Z,71.77
2022-10-07T09:25:56.791Z,70.95
2022-10-07T09:31:00.858Z,70.03
2022-10-07T09:36:10.195Z,70.02
2022-10-07T09:41:19.809Z,69.19
2022-10-07T09:46:48.544Z,69.02
2022-10-07T09:52:03.369Z,68.40
2022-10-07T09:57:22.572Z,67.42
2022-10-07T10:02:26.334Z,67.77
2022-10-07T10:07:32.667Z,67.40
2022-10-07T10:12:44.948Z,66.99
2022-10-07T10:17:48.319Z,64.82
2022-10-07T10:22:52.042Z,65.62
2022-10-07T10:28:03.790Z,63.45
2022-10-07T10:33:13.420Z,63.27
2022-10-07T10:38:18.994Z,62.13
2022-10-07T10:43:24.735Z,62.02
2022-10-07T10:48:29.248Z,61.03
2022-10-07T10:54:06.139Z,60.54
2022-10-07T10:59:49.102Z,60.47
2022-10-07T11:05:03.176Z,57.81
2022-10-07T11:10:20.290Z,57.64
2022-10-07T11:15:28.414Z,56.09
2022-10-07T11:20:42.313Z,54.99
2022-10-07T11:25:57.375Z,56.36
2022-10-07T11:31:12.728Z,56.28
2022-10-07T11:36:19.978Z,55.04
2022-10-07T11:41:26.686Z,55.45
2022-10-07T11:46:44.874Z,54.28
2022-10-07T11:51:59.690Z,53.70
2022-10-07T11:57:02.303Z,53.33
2022-10-07T12:02:05.118Z,53.22
2022-10-07T12:07:35.945Z,52.66
2022-10-07T12:12:45.276Z,52.69
2022-10-07T12:18:06.373Z,52.67
2022-10-07T12:23:26.669Z,52.37
2022-10-07T12:28:35.373Z,53.40
2022-10-07T12:33:45.230Z,54.10
2022-10-07T12:38:57.316Z,53.25
2022-10-07T12:44:45.567Z,53.60
2022-10-07T12:49:50.945Z,53.49
2022-10-07T12:55:00.780Z,54.73
2022-10-07T13:00:11.459Z,54.80
2022-10-07T13:05:43.781Z,55.47
2022-10-07T13:11:23.364Z,56.30
2022-10-07T13:16:38.098Z,56.43
2022-10-07T13:21:46.701Z,56.33
2022-10-07T13:26:49.953Z,56.66
2022-10-07T13:32:16.230Z,56.26
2022-10-07T13:37:27.709Z,56.84
2022-10-07T13:42:30.333Z,56.94
2022-10-07T13:47:36.735Z,57.17
2022-10-07T13:52:46.983Z,57.22
2022-10-07T13:57:50.292Z,56.73
2022-10-07T14:02:53.471Z,55.12
2022-10-07T14:07:57.225Z,55.52
2022-10-07T14:13:15.157Z,56.14
2022-10-07T14:18:18.592Z,56.35
2022-10-07T14:23:31.322Z,56.02
2022-10-07T14:28:35.989Z,56.33
2022-10-07T14:34:08.784Z,56.98
2022-10-07T14:39:30.731Z,57.65
2022-10-07T14:44:33.397Z,58.02
2022-10-07T14:49:36.405Z,58.35
2022-10-07T14:54:39.808Z,59.19
2022-10-07T14:59:42.401Z,59.77
2022-10-07T15:04:45.641Z,60.20
2022-10-07T15:09:48.433Z,60.55
2022-10-07T15:14:51.199Z,61.41
2022-10-07T15:19:53.923Z,61.92
2022-10-07T15:24:57.123Z,62.57
2022-10-07T15:30:00.479Z,62.89
2022-10-07T15:35:03.196Z,63.40
2022-10-07T15:40:07.604Z,64.54
2022-10-07T15:45:11.282Z,65.55
2022-10-07T15:50:14.707Z,66.82
2022-10-07T15:55:17.512Z,67.66
2022-10-07T16:00:20.936Z,68.23
2022-10-07T16:05:24.339Z,69.27
2022-10-07T16:10:27.019Z,69.94
2022-10-07T16:15:29.801Z,71.02
2022-10-07T16:20:32.659Z,71.64
2022-10-07T16:25:35.507Z,72.60
2022-10-07T16:30:41.141Z,73.17
2022-10-07T16:35:43.684Z,73.86
2022-10-07T16:40:55.540Z,74.83
2022-10-07T16:46:03.113Z,75.33
2022-10-07T16:51:17.628Z,76.13
2022-10-07T16:56:20.597Z,76.81
2022-10-07T17:01:24.613Z,77.31
2022-10-07T17:06:29.447Z,77.97
2022-10-07T17:11:34.079Z,78.60
2022-10-07T17:16:39.848Z,79.58
2022-10-07T17:21:42.706Z,80.02
2022-10-07T17:26:45.833Z,80.80
2022-10-07T17:31:50.949Z,81.31
2022-10-07T17:36:54.298Z,81.93
2022-10-07T17:41:57.487Z,82.68
2022-10-07T17:47:03.650Z,83.02
2022-10-07T17:52:06.332Z,83.77
2022-10-07T17:57:08.918Z,83.89
2022-10-07T18:02:12.306Z,84.39
2022-10-07T18:07:16.309Z,84.90
2022-10-07T18:12:38.022Z,85.42
2022-10-07T18:17:40.643Z,85.75
2022-10-07T18:22:44.212Z,86.13
2022-10-07T18:27:47.017Z,86.41
2022-10-07T18:32:49.963Z,86.96
2022-10-07T18:37:55.389Z,87.04
2022-10-07T18:42:58.260Z,87.33
2022-10-07T18:48:00.950Z,87.76
2022-10-07T18:53:03.712Z,87.97
2022-10-07T18:58:06.303Z,88.32
2022-10-07T19:03:09.208Z,88.38
2022-10-07T19:08:11.843Z,88.78
2022-10-07T19:13:34.030Z,88.98
2022-10-07T19:18:37.732Z,89.00
2022-10-07T19:23:40.741Z,89.55
2022-10-07T19:28:45.710Z,90.06
2022-10-07T19:33:50.537Z,90.01
2022-10-07T19:38:53.415Z,90.13
2022-10-07T19:43:56.642Z,90.54
2022-10-07T19:49:01.099Z,90.78
2022-10-07T19:54:07.765Z,90.86
2022-10-07T19:59:12.454Z,91.34
2022-10-07T20:04:18.837Z,91.16
2022-10-07T20:09:22.528Z,91.50
2022-10-07T20:14:25.217Z,91.82
2022-10-07T20:19:27.814Z,92.20
2022-10-07T20:24:30.451Z,92.45
2022-10-07T20:29:53.036Z,92.80
2022-10-07T20:34:55.632Z,92.80
2022-10-07T20:40:17.052Z,93.19
2022-10-07T20:45:20.804Z,93.12
2022-10-07T20:50:23.409Z,93.32
2022-10-07T20:55:26.090Z,93.66
2022-10-07T21:00:28.646Z,93.74
2022-10-07T21:05:31.316Z,93.90
2022-10-07T21:10:33.962Z,93.93
2022-10-07T21:15:37.600Z,93.97
2022-10-07T21:20:56.835Z,94.20
2022-10-07T21:26:04.018Z,94.21
2022-10-07T21:31:09.294Z,94.24
2022-10-07T21:36:17.404Z,94.45
2022-10-07T21:41:22.962Z,94.69
2022-10-07T21:46:26.933Z,94.78
2022-10-07T21:51:31.951Z,94.95
2022-10-07T21:56:34.963Z,95.24
2022-10-07T22:01:38.667Z,95.18
2022-10-07T22:07:13.568Z,95.30
2022-10-07T22:12:16.163Z,95.46
2022-10-07T22:17:19.410Z,95.50
2022-10-07T22:22:22.050Z,95.64
2022-10-07T22:27:25.283Z,95.63
2022-10-07T22:32:28.243Z,95.59
2022-10-07T22:37:30.918Z,95.73
2022-10-07T22:42:35.434Z,95.68
2022-10-07T22:47:39.465Z,95.96
2022-10-07T22:52:42.271Z,95.98
2022-10-07T22:57:44.887Z,95.98
2022-10-07T23:02:47.835Z,96.12
2022-10-07T23:07:50.632Z,96.04
2022-10-07T23:12:53.204Z,96.11
2022-10-07T23:17:56.959Z,96.57
2022-10-07T23:22:59.532Z,96.46
2022-10-07T23:28:02.102Z,96.54
2022-10-07T23:33:04.719Z,96.72
2022-10-07T23:38:08.786Z,96.90
2022-10-07T23:43:11.563Z,96.80
2022-10-07T23:48:14.868Z,97.13
2022-10-07T23:53:19.290Z,96.97
2022-10-07T23:58:24.222Z,97.16
